Donostia-San Sebastian, Spain
Current Conditions -  °F | °C
As of 10:30 AM on Wednesday 22 Oct 2014 (Local Time) from LESO Reporting Station
Broken Clouds Broken Clouds  
Wind Chill: 61°   Ceiling: 5800
Heat Index: 61°   Visibility: 6mi
Dew Point: 50°   Wind: 0mph
Humidity: 68%   Direction: NA
Pressure: 30.48"   Gusts: NA
Location:  43.32°N, 1.98°W
Report Text: LESO 220830Z 00000KT 9999 FEW034 SCT043 BKN058 16/10 Q1032
Loading
Personal Weather Stations






























Interactive Weather Map
Tropical Storm Tracking
New forecast layout! Learn more

10-Day Weather Forecast

Advertisements
Track Severe Weather on mobile